createdAt,value
2019-06-20T00:00:57.127Z,21.15
2019-06-20T00:03:30.941Z,21.45
2019-06-20T00:06:04.838Z,21.35
2019-06-20T00:08:40.456Z,22.05
2019-06-20T00:11:14.174Z,21.05
2019-06-20T00:13:47.983Z,20.05
2019-06-20T00:16:21.759Z,21.90
2019-06-20T00:18:55.700Z,20.68
2019-06-20T00:21:29.551Z,20.52
2019-06-20T00:24:03.418Z,20.10
2019-06-20T00:26:37.327Z,19.35
2019-06-20T00:29:11.147Z,20.92
2019-06-20T00:31:47.919Z,21.82
2019-06-20T00:34:21.851Z,21.20
2019-06-20T00:36:55.829Z,21.15
2019-06-20T00:39:29.590Z,21.55
2019-06-20T00:42:03.556Z,22.98
2019-06-20T00:44:38.428Z,22.80
2019-06-20T00:47:12.301Z,21.80
2019-06-20T00:49:46.099Z,22.27
2019-06-20T00:52:19.981Z,22.60
2019-06-20T00:54:53.809Z,21.42
2019-06-20T00:57:27.795Z,21.23
2019-06-20T01:00:02.217Z,20.62
2019-06-20T01:02:36.178Z,20.85
2019-06-20T01:05:10.427Z,23.00
2019-06-20T01:07:44.375Z,23.87
2019-06-20T01:10:19.310Z,25.75
2019-06-20T01:12:53.279Z,23.42
2019-06-20T01:15:27.120Z,22.77
2019-06-20T01:18:01.601Z,23.00
2019-06-20T01:20:35.431Z,24.32
2019-06-20T01:23:09.308Z,23.32
2019-06-20T01:25:45.033Z,22.73
2019-06-20T01:28:18.997Z,21.82
2019-06-20T01:30:52.783Z,23.35
2019-06-20T01:33:26.627Z,22.10
2019-06-20T01:36:01.134Z,23.75
2019-06-20T01:38:35.028Z,21.00
2019-06-20T01:41:08.843Z,24.35
2019-06-20T01:43:50.688Z,23.80
2019-06-20T01:46:18.570Z,21.70
2019-06-20T01:48:52.420Z,23.42
2019-06-20T01:51:26.446Z,22.25
2019-06-20T01:54:00.918Z,23.07
2019-06-20T01:56:34.770Z,22.48
2019-06-20T01:59:08.671Z,22.17
2019-06-20T02:01:42.561Z,20.20
2019-06-20T02:04:17.220Z,22.75
2019-06-20T02:06:53.597Z,20.85
2019-06-20T02:09:27.476Z,19.60
2019-06-20T02:12:01.879Z,20.48
2019-06-20T02:14:35.909Z,21.40
2019-06-20T02:17:09.576Z,20.75
2019-06-20T02:19:43.438Z,20.00
2019-06-20T02:22:17.359Z,20.37
2019-06-20T02:24:51.240Z,20.10
2019-06-20T02:27:25.296Z,20.72
2019-06-20T02:29:59.750Z,20.75
2019-06-20T02:32:33.615Z,21.60
2019-06-20T02:35:08.194Z,19.85
2019-06-20T02:37:41.978Z,20.05
2019-06-20T02:40:16.108Z,20.92
2019-06-20T02:42:50.697Z,20.55
2019-06-20T02:45:24.550Z,21.10
2019-06-20T02:47:58.492Z,20.90
2019-06-20T02:50:32.347Z,21.40
2019-06-20T02:53:06.642Z,22.30
2019-06-20T02:55:41.553Z,20.27
2019-06-20T02:58:15.388Z,20.17
2019-06-20T03:00:59.116Z,19.65
2019-06-20T03:03:33.036Z,20.25
2019-06-20T03:06:07.208Z,21.30
2019-06-20T03:08:41.121Z,21.30
2019-06-20T03:11:15.021Z,20.75
2019-06-20T03:13:48.839Z,22.05
2019-06-20T03:16:22.695Z,20.10
2019-06-20T03:18:56.609Z,21.87
2019-06-20T03:21:30.468Z,20.95
2019-06-20T03:24:04.435Z,21.15
2019-06-20T03:26:38.410Z,20.52
2019-06-20T03:29:12.311Z,19.35
2019-06-20T03:31:46.331Z,19.20
2019-06-20T03:34:20.474Z,20.27
2019-06-20T03:36:54.471Z,20.85
2019-06-20T03:39:28.370Z,22.75
2019-06-20T03:42:02.937Z,24.35
2019-06-20T03:44:36.711Z,25.55
2019-06-20T03:47:10.718Z,26.45
2019-06-20T03:49:44.568Z,27.70
2019-06-20T03:52:18.437Z,28.17
2019-06-20T03:54:52.337Z,25.60
2019-06-20T03:57:27.314Z,25.20
2019-06-20T04:00:01.816Z,22.95
2019-06-20T04:02:35.757Z,25.17
2019-06-20T04:05:10.719Z,25.32
2019-06-20T04:07:44.587Z,28.40
2019-06-20T04:10:18.387Z,25.57
2019-06-20T04:12:52.218Z,25.77
2019-06-20T04:15:26.177Z,27.77
2019-06-20T04:18:00.162Z,26.87
2019-06-20T04:20:34.103Z,26.37
2019-06-20T04:23:07.963Z,27.10
2019-06-20T04:25:41.834Z,26.10
2019-06-20T04:28:16.492Z,27.13
2019-06-20T04:30:50.333Z,22.93
2019-06-20T04:33:24.302Z,19.57
2019-06-20T04:35:58.204Z,22.50
2019-06-20T04:38:32.169Z,26.42
2019-06-20T04:41:06.118Z,24.60
2019-06-20T04:43:39.961Z,24.30
2019-06-20T04:46:15.468Z,25.17
2019-06-20T04:48:49.357Z,22.90
2019-06-20T04:51:23.154Z,24.12
2019-06-20T04:53:57.016Z,24.02
2019-06-20T04:56:30.800Z,23.75
2019-06-20T04:59:04.769Z,24.92
2019-06-20T05:01:38.598Z,23.55
2019-06-20T05:04:12.572Z,23.70
2019-06-20T05:06:50.868Z,24.72
2019-06-20T05:09:24.697Z,31.65
2019-06-20T05:11:58.620Z,24.67
2019-06-20T05:14:33.730Z,22.07
2019-06-20T05:17:07.571Z,32.55
2019-06-20T05:19:41.429Z,28.80
2019-06-20T05:22:15.267Z,26.97
2019-06-20T05:24:49.256Z,24.80
2019-06-20T05:27:23.020Z,22.70
2019-06-20T05:29:56.912Z,22.10
2019-06-20T05:32:30.765Z,21.68
2019-06-20T05:35:05.643Z,21.33
2019-06-20T05:37:39.433Z,21.35
2019-06-20T05:40:13.896Z,20.88
2019-06-20T05:42:47.710Z,19.50
2019-06-20T05:45:22.757Z,21.05
2019-06-20T05:47:59.282Z,20.90
2019-06-20T05:50:33.180Z,21.60
2019-06-20T05:53:07.004Z,21.75
2019-06-20T05:55:41.968Z,21.25
2019-06-20T05:58:15.879Z,20.45
2019-06-20T06:00:49.890Z,20.60
2019-06-20T06:03:24.785Z,20.92
2019-06-20T06:05:58.647Z,20.10
2019-06-20T06:08:34.108Z,21.25
2019-06-20T06:11:08.771Z,20.25
2019-06-20T06:13:42.719Z,21.75
2019-06-20T06:16:25.765Z,20.48
2019-06-20T06:18:52.130Z,23.05
2019-06-20T06:21:26.073Z,21.95
2019-06-20T06:24:00.019Z,23.20
2019-06-20T06:26:33.852Z,22.10
2019-06-20T06:29:07.791Z,23.32
2019-06-20T06:31:41.738Z,22.80
2019-06-20T06:34:15.468Z,22.20
2019-06-20T06:36:50.387Z,23.90
2019-06-20T06:39:24.308Z,22.62
2019-06-20T06:41:58.184Z,21.65
2019-06-20T06:44:32.004Z,22.07
2019-06-20T06:47:05.902Z,21.12
2019-06-20T06:49:40.321Z,20.90
2019-06-20T06:52:14.978Z,20.52
2019-06-20T06:54:48.771Z,20.77
2019-06-20T06:57:25.966Z,19.77
2019-06-20T07:00:01.233Z,18.48
2019-06-20T07:02:36.378Z,19.80
2019-06-20T07:05:10.797Z,19.95
2019-06-20T07:07:44.768Z,19.52
2019-06-20T07:10:20.312Z,17.95
2019-06-20T07:12:54.258Z,62.13
2019-06-20T07:15:29.145Z,22.45
2019-06-20T07:18:04.440Z,22.20
2019-06-20T07:20:39.072Z,20.75
2019-06-20T07:23:14.471Z,18.73
2019-06-20T07:25:48.213Z,19.35
2019-06-20T07:28:22.857Z,19.40
2019-06-20T07:30:56.763Z,17.52
2019-06-20T07:33:30.710Z,16.82
2019-06-20T07:36:05.962Z,16.85
2019-06-20T07:38:39.831Z,17.35
2019-06-20T07:41:14.247Z,17.23
2019-06-20T07:43:49.756Z,16.65
2019-06-20T07:46:24.376Z,16.52
2019-06-20T07:48:59.333Z,16.50
2019-06-20T07:51:33.100Z,17.07
2019-06-20T07:54:06.999Z,17.73
2019-06-20T07:56:40.868Z,17.20
2019-06-20T07:59:15.899Z,18.80
2019-06-20T08:01:49.729Z,17.30
2019-06-20T08:04:26.313Z,16.23
2019-06-20T08:07:00.180Z,16.40
2019-06-20T08:09:44.306Z,15.25
2019-06-20T08:12:09.503Z,15.78
2019-06-20T08:14:43.432Z,16.00
2019-06-20T08:17:31.565Z,17.73
2019-06-20T08:19:52.869Z,16.77
2019-06-20T08:22:27.483Z,18.37
2019-06-20T08:25:01.404Z,17.32
2019-06-20T08:27:50.902Z,17.12
2019-06-20T08:30:31.802Z,18.62
2019-06-20T08:33:11.538Z,17.42
2019-06-20T08:35:41.575Z,17.52
2019-06-20T08:38:15.378Z,18.15
2019-06-20T08:40:49.224Z,18.48
2019-06-20T08:43:23.720Z,18.25
2019-06-20T08:45:57.980Z,19.02
2019-06-20T08:48:31.871Z,17.57
2019-06-20T08:51:06.584Z,18.45
2019-06-20T08:53:40.448Z,17.92
2019-06-20T08:56:14.280Z,18.50
2019-06-20T08:58:48.201Z,18.55
2019-06-20T09:01:22.169Z,18.00
2019-06-20T09:03:57.008Z,18.17
2019-06-20T09:06:31.553Z,17.75
2019-06-20T09:09:08.351Z,17.82
2019-06-20T09:11:42.318Z,19.67
2019-06-20T09:14:16.689Z,18.15
2019-06-20T09:16:50.628Z,18.45
2019-06-20T09:19:24.428Z,18.80
2019-06-20T09:21:58.286Z,18.12
2019-06-20T09:24:32.028Z,17.05
2019-06-20T09:27:05.849Z,18.45
2019-06-20T09:29:42.019Z,17.20
2019-06-20T09:32:15.259Z,19.00
2019-06-20T09:34:51.412Z,16.17
2019-06-20T09:37:24.917Z,17.02
2019-06-20T09:39:59.191Z,17.45
2019-06-20T09:42:33.277Z,14.15
2019-06-20T09:45:12.470Z,15.53
2019-06-20T09:47:47.212Z,13.90
2019-06-20T09:50:21.650Z,14.30
2019-06-20T09:52:56.659Z,14.23
2019-06-20T09:55:30.949Z,14.58
2019-06-20T09:58:05.632Z,14.03
2019-06-20T10:00:39.742Z,14.07
2019-06-20T10:03:14.030Z,15.05
2019-06-20T10:05:49.287Z,15.00
2019-06-20T10:08:24.197Z,14.63
2019-06-20T10:10:58.137Z,15.25
2019-06-20T10:13:32.889Z,14.93
2019-06-20T10:16:06.865Z,15.60
2019-06-20T10:18:40.715Z,15.55
2019-06-20T10:21:14.696Z,15.72
2019-06-20T10:23:50.260Z,15.48
2019-06-20T10:26:24.691Z,15.63
2019-06-20T10:28:58.542Z,15.45
2019-06-20T10:31:32.477Z,15.98
2019-06-20T10:34:06.959Z,16.07
2019-06-20T10:36:40.881Z,15.68
2019-06-20T10:39:14.751Z,15.05
2019-06-20T10:41:48.679Z,15.98
2019-06-20T10:44:23.738Z,15.70
2019-06-20T10:46:57.529Z,14.70
2019-06-20T10:49:31.538Z,16.45
2019-06-20T10:52:07.537Z,17.32
2019-06-20T10:54:42.221Z,14.95
2019-06-20T10:57:16.748Z,15.80
2019-06-20T10:59:50.927Z,14.83
2019-06-20T11:02:24.752Z,15.85
2019-06-20T11:04:58.810Z,15.08
2019-06-20T11:07:32.698Z,14.68
2019-06-20T11:10:12.887Z,12.80
2019-06-20T11:12:52.339Z,13.58
2019-06-20T11:15:24.722Z,14.23
2019-06-20T11:17:58.568Z,14.23
2019-06-20T11:20:32.577Z,14.00
2019-06-20T11:23:06.372Z,12.18
2019-06-20T11:25:41.865Z,13.53
2019-06-20T11:28:16.530Z,14.03
2019-06-20T11:30:58.042Z,10.95
2019-06-20T11:33:25.993Z,11.60
2019-06-20T11:35:59.949Z,8.78
2019-06-20T11:38:33.590Z,9.50
2019-06-20T11:41:07.570Z,9.63
2019-06-20T11:43:42.230Z,9.65
2019-06-20T11:46:16.269Z,8.95
2019-06-20T11:48:50.836Z,11.12
2019-06-20T11:51:24.791Z,10.23
2019-06-20T11:53:58.510Z,11.15
2019-06-20T11:56:33.504Z,10.72
2019-06-20T11:59:07.407Z,11.03
2019-06-20T12:01:42.797Z,10.90
2019-06-20T12:04:16.689Z,10.15
2019-06-20T12:06:51.614Z,10.03
2019-06-20T12:09:25.496Z,9.83
2019-06-20T12:11:59.378Z,9.68
2019-06-20T12:14:33.289Z,10.58
2019-06-20T12:17:07.933Z,9.60
2019-06-20T12:19:42.463Z,10.60
2019-06-20T12:22:17.089Z,9.65
2019-06-20T12:24:50.967Z,9.90
2019-06-20T12:27:24.818Z,11.12
2019-06-20T12:29:58.747Z,10.28
2019-06-20T12:32:32.687Z,11.18
2019-06-20T12:35:07.680Z,9.88
2019-06-20T12:37:42.688Z,9.65
2019-06-20T12:40:17.210Z,9.08
2019-06-20T12:42:51.017Z,10.38
2019-06-20T12:45:24.950Z,9.65
2019-06-20T12:47:58.924Z,9.95
2019-06-20T12:50:32.844Z,10.13
2019-06-20T12:53:06.708Z,9.63
2019-06-20T12:55:40.621Z,9.73
2019-06-20T12:58:14.794Z,8.43
2019-06-20T13:00:48.567Z,9.50
2019-06-20T13:03:22.521Z,10.10
2019-06-20T13:05:56.307Z,9.83
2019-06-20T13:08:30.158Z,9.23
2019-06-20T13:11:03.969Z,10.10
2019-06-20T13:13:39.351Z,9.80
2019-06-20T13:16:15.010Z,9.98
2019-06-20T13:18:48.887Z,10.38
2019-06-20T13:21:23.024Z,9.25
2019-06-20T13:23:57.711Z,9.80
2019-06-20T13:26:31.616Z,9.40
2019-06-20T13:29:05.561Z,11.00
2019-06-20T13:31:56.477Z,9.70
2019-06-20T13:34:19.274Z,10.72
2019-06-20T13:36:53.881Z,10.72
2019-06-20T13:39:27.991Z,10.72
2019-06-20T13:42:02.040Z,10.68
2019-06-20T13:44:35.991Z,10.35
2019-06-20T13:47:09.830Z,11.55
2019-06-20T13:49:43.678Z,11.40
2019-06-20T13:52:18.191Z,10.08
2019-06-20T13:54:52.839Z,9.85
2019-06-20T13:57:26.630Z,9.43
2019-06-20T14:00:00.588Z,9.50
2019-06-20T14:02:34.519Z,11.60
2019-06-20T14:05:09.801Z,9.63
2019-06-20T14:07:48.446Z,9.38
2019-06-20T14:10:20.637Z,9.88
2019-06-20T14:12:54.409Z,9.50
2019-06-20T14:15:28.361Z,10.40
2019-06-20T14:18:02.295Z,9.75
2019-06-20T14:20:36.154Z,10.75
2019-06-20T14:23:09.989Z,9.53
2019-06-20T14:25:44.019Z,9.65
2019-06-20T14:28:17.777Z,9.80
2019-06-20T14:30:52.702Z,9.90
2019-06-20T14:33:26.573Z,9.23
2019-06-20T14:36:00.460Z,9.58
2019-06-20T14:38:34.391Z,9.45
2019-06-20T14:41:09.056Z,9.93
2019-06-20T14:43:44.367Z,9.73
2019-06-20T14:46:18.527Z,9.80
2019-06-20T14:48:52.556Z,10.18
2019-06-20T14:51:26.487Z,9.80
2019-06-20T14:54:00.312Z,9.88
2019-06-20T14:56:34.206Z,10.88
2019-06-20T14:59:08.012Z,9.80
2019-06-20T15:01:41.948Z,9.18
2019-06-20T15:04:15.847Z,9.55
2019-06-20T15:06:50.455Z,9.50
2019-06-20T15:09:24.444Z,9.35
2019-06-20T15:11:58.499Z,9.75
2019-06-20T15:14:32.296Z,10.13
2019-06-20T15:17:06.183Z,10.53
2019-06-20T15:19:41.829Z,10.18
2019-06-20T15:22:16.345Z,9.90
2019-06-20T15:24:53.217Z,10.55
2019-06-20T15:27:25.734Z,13.72
2019-06-20T15:29:59.570Z,10.13
2019-06-20T15:32:33.466Z,10.03
2019-06-20T15:35:09.010Z,12.05
2019-06-20T15:37:42.862Z,10.13
2019-06-20T15:40:16.879Z,12.93
2019-06-20T15:42:51.560Z,10.95
2019-06-20T15:45:26.648Z,13.98
2019-06-20T15:48:00.622Z,12.78
2019-06-20T15:50:34.521Z,16.17
2019-06-20T15:53:09.258Z,15.50
2019-06-20T15:55:43.185Z,13.32
2019-06-20T15:58:17.142Z,12.43
2019-06-20T16:00:50.982Z,12.13
2019-06-20T16:03:25.051Z,10.18
2019-06-20T16:05:58.860Z,9.58
2019-06-20T16:08:32.894Z,16.00
2019-06-20T16:11:06.864Z,10.65
2019-06-20T16:13:40.809Z,9.28
2019-06-20T16:16:15.248Z,9.65
2019-06-20T16:18:49.245Z,9.23
2019-06-20T16:21:23.760Z,10.10
2019-06-20T16:23:57.942Z,9.85
2019-06-20T16:26:31.801Z,10.78
2019-06-20T16:29:05.794Z,10.58
2019-06-20T16:31:39.682Z,9.90
2019-06-20T16:34:13.528Z,9.93
2019-06-20T16:36:47.446Z,10.23
2019-06-20T16:39:21.298Z,9.80
2019-06-20T16:41:55.879Z,10.15
2019-06-20T16:44:29.731Z,10.50
2019-06-20T16:47:03.671Z,10.50
2019-06-20T16:49:37.637Z,10.82
2019-06-20T16:52:11.722Z,10.93
2019-06-20T16:54:45.796Z,11.03
2019-06-20T16:57:19.887Z,12.13
2019-06-20T16:59:53.934Z,12.25
2019-06-20T17:02:27.808Z,12.25
2019-06-20T17:05:01.737Z,13.28
2019-06-20T17:07:35.950Z,12.73
2019-06-20T17:10:11.358Z,11.65
2019-06-20T17:12:45.290Z,13.03
2019-06-20T17:15:19.459Z,12.90
2019-06-20T17:17:53.253Z,12.50
2019-06-20T17:20:27.369Z,12.80
2019-06-20T17:23:01.278Z,13.68
2019-06-20T17:25:35.150Z,12.98
2019-06-20T17:28:09.467Z,13.40
2019-06-20T17:30:43.824Z,14.90
2019-06-20T17:33:17.960Z,14.50
2019-06-20T17:35:51.932Z,14.58
2019-06-20T17:38:26.536Z,13.40
2019-06-20T17:41:00.511Z,14.18
2019-06-20T17:43:34.331Z,13.70
2019-06-20T17:46:08.678Z,12.55
2019-06-20T17:48:42.595Z,10.85
2019-06-20T17:51:16.451Z,11.50
2019-06-20T17:53:50.334Z,11.12
2019-06-20T17:56:24.193Z,11.33
2019-06-20T17:58:58.015Z,12.15
2019-06-20T18:01:35.796Z,12.03
2019-06-20T18:04:13.838Z,11.78
2019-06-20T18:06:43.444Z,11.30
2019-06-20T18:09:17.320Z,12.23
2019-06-20T18:11:51.764Z,11.20
2019-06-20T18:14:27.201Z,12.00
2019-06-20T18:17:01.083Z,11.12
2019-06-20T18:19:35.137Z,10.58
2019-06-20T18:22:09.163Z,10.88
2019-06-20T18:24:43.173Z,11.25
2019-06-20T18:27:17.155Z,11.28
2019-06-20T18:29:51.079Z,18.15
2019-06-20T18:32:25.967Z,21.85
2019-06-20T18:35:02.119Z,11.80
2019-06-20T18:37:35.415Z,10.95
2019-06-20T18:40:11.477Z,9.80
2019-06-20T18:42:45.251Z,16.17
2019-06-20T18:45:19.611Z,13.83
2019-06-20T18:47:53.492Z,11.63
2019-06-20T18:50:27.361Z,10.65
2019-06-20T18:53:01.210Z,12.95
2019-06-20T18:55:36.170Z,11.50
2019-06-20T18:58:11.594Z,10.98
2019-06-20T19:00:45.498Z,11.15
2019-06-20T19:03:21.303Z,11.35
2019-06-20T19:05:54.710Z,11.60
2019-06-20T19:08:29.675Z,11.30
2019-06-20T19:11:03.544Z,12.20
2019-06-20T19:13:39.759Z,12.35
2019-06-20T19:16:13.996Z,13.35
2019-06-20T19:18:47.891Z,11.68
2019-06-20T19:21:21.832Z,12.50
2019-06-20T19:23:55.867Z,13.90
2019-06-20T19:26:29.641Z,12.95
2019-06-20T19:29:04.476Z,17.02
2019-06-20T19:31:39.554Z,21.45
2019-06-20T19:34:15.013Z,20.17
2019-06-20T19:36:48.863Z,17.02
2019-06-20T19:39:22.794Z,12.88
2019-06-20T19:41:56.665Z,14.10
2019-06-20T19:44:30.603Z,14.33
2019-06-20T19:47:07.274Z,14.00
2019-06-20T19:49:41.115Z,14.35
2019-06-20T19:52:15.118Z,14.18
2019-06-20T19:54:49.115Z,14.63
2019-06-20T19:57:22.963Z,14.38
2019-06-20T19:59:56.884Z,14.33
2019-06-20T20:02:30.827Z,14.65
2019-06-20T20:05:19.126Z,14.30
2019-06-20T20:07:45.573Z,14.65
2019-06-20T20:10:35.475Z,14.95
2019-06-20T20:13:09.391Z,15.28
2019-06-20T20:15:43.544Z,16.37
2019-06-20T20:18:17.965Z,15.90
2019-06-20T20:20:52.355Z,15.90
2019-06-20T20:23:26.166Z,15.85
2019-06-20T20:26:00.141Z,16.82
2019-06-20T20:28:33.930Z,16.10
2019-06-20T20:31:07.800Z,16.17
2019-06-20T20:33:41.641Z,16.67
2019-06-20T20:36:24.924Z,16.10
2019-06-20T20:38:54.769Z,15.35
2019-06-20T20:41:29.132Z,15.80
2019-06-20T20:44:04.246Z,15.50
2019-06-20T20:46:38.145Z,16.90
2019-06-20T20:49:11.940Z,16.12
2019-06-20T20:51:46.628Z,17.90
2019-06-20T20:54:20.412Z,17.30
2019-06-20T20:56:54.571Z,17.55
2019-06-20T20:59:28.591Z,17.85
2019-06-20T21:02:02.441Z,17.65
2019-06-20T21:04:36.341Z,16.93
2019-06-20T21:07:10.239Z,16.95
2019-06-20T21:09:47.962Z,18.07
2019-06-20T21:12:22.025Z,17.95
2019-06-20T21:14:55.855Z,17.98
2019-06-20T21:17:29.732Z,17.95
2019-06-20T21:20:04.606Z,17.92
2019-06-20T21:22:39.187Z,19.80
2019-06-20T21:25:14.261Z,18.92
2019-06-20T21:27:48.285Z,20.37
2019-06-20T21:30:22.478Z,19.30
2019-06-20T21:33:00.228Z,18.92
2019-06-20T21:35:37.007Z,17.80
2019-06-20T21:38:10.869Z,17.82
2019-06-20T21:40:44.671Z,18.10
2019-06-20T21:43:18.613Z,18.48
2019-06-20T21:45:52.340Z,18.00
2019-06-20T21:48:26.293Z,18.85
2019-06-20T21:51:00.366Z,19.45
2019-06-20T21:53:34.201Z,19.42
2019-06-20T21:56:08.648Z,20.70
2019-06-20T21:58:42.587Z,21.30
2019-06-20T22:01:18.889Z,20.40
2019-06-20T22:03:52.746Z,18.77
2019-06-20T22:06:28.666Z,18.20
2019-06-20T22:09:02.617Z,18.17
2019-06-20T22:11:38.970Z,18.57
2019-06-20T22:14:12.797Z,19.80
2019-06-20T22:16:46.617Z,21.02
2019-06-20T22:19:20.444Z,19.05
2019-06-20T22:21:54.450Z,20.65
2019-06-20T22:24:28.372Z,21.68
2019-06-20T22:27:02.166Z,21.02
2019-06-20T22:29:36.022Z,21.60
2019-06-20T22:32:10.269Z,21.33
2019-06-20T22:34:44.118Z,19.98
2019-06-20T22:37:18.554Z,20.72
2019-06-20T22:40:01.412Z,21.15
2019-06-20T22:42:35.411Z,21.23
2019-06-20T22:45:12.420Z,22.73
2019-06-20T22:47:46.241Z,21.60
2019-06-20T22:50:20.119Z,19.67
2019-06-20T22:52:53.912Z,20.08
2019-06-20T22:55:27.865Z,19.98
2019-06-20T22:58:01.719Z,20.35
2019-06-20T23:00:35.798Z,21.17
2019-06-20T23:03:09.611Z,22.00
2019-06-20T23:05:45.027Z,20.90
2019-06-20T23:08:18.832Z,22.30
2019-06-20T23:10:52.670Z,22.00
2019-06-20T23:13:26.601Z,21.25
2019-06-20T23:16:00.539Z,20.92
2019-06-20T23:18:34.398Z,20.65
2019-06-20T23:21:08.370Z,21.12
2019-06-20T23:23:42.139Z,21.10
2019-06-20T23:26:15.961Z,21.07
2019-06-20T23:28:51.331Z,20.40
2019-06-20T23:31:25.203Z,20.55
2019-06-20T23:33:59.081Z,21.37
2019-06-20T23:36:36.627Z,24.43
2019-06-20T23:39:10.527Z,25.32
2019-06-20T23:41:44.499Z,25.60
2019-06-20T23:44:18.427Z,25.68
2019-06-20T23:46:52.362Z,26.93
2019-06-20T23:49:26.207Z,28.47
2019-06-20T23:52:04.461Z,28.65
2019-06-20T23:54:38.263Z,28.98
2019-06-20T23:57:13.309Z,28.50
2019-06-20T23:59:47.265Z,27.75
